createdAt,value
2019-05-22T00:01:00.652Z,25.04
2019-05-22T00:04:15.984Z,25.07
2019-05-22T00:07:20.287Z,25.04
2019-05-22T00:10:26.202Z,25.03
2019-05-22T00:13:30.965Z,25.04
2019-05-22T00:16:35.159Z,25.05
2019-05-22T00:19:40.526Z,25.04
2019-05-22T00:22:48.254Z,25.03
2019-05-22T00:25:53.346Z,25.05
2019-05-22T00:28:56.744Z,25.03
2019-05-22T00:32:00.791Z,25.02
2019-05-22T00:35:05.129Z,25.03
2019-05-22T00:38:11.512Z,25.02
2019-05-22T00:41:17.650Z,25.01
2019-05-22T00:44:21.934Z,25.01
2019-05-22T00:47:28.376Z,25.04
2019-05-22T00:50:40.350Z,25.03
2019-05-22T00:54:08.058Z,25.00
2019-05-22T00:57:29.618Z,25.00
2019-05-22T01:00:45.511Z,25.00
2019-05-22T01:03:50.514Z,24.98
2019-05-22T01:06:57.596Z,24.95
2019-05-22T01:10:04.384Z,24.95
2019-05-22T01:13:09.932Z,24.97
2019-05-22T01:16:15.267Z,24.96
2019-05-22T01:19:19.247Z,24.98
2019-05-22T01:22:23.042Z,24.98
2019-05-22T01:25:27.497Z,24.98
2019-05-22T01:28:34.145Z,24.96
2019-05-22T01:31:41.783Z,24.98
2019-05-22T01:34:46.192Z,24.95
2019-05-22T01:37:52.539Z,24.94
2019-05-22T01:40:58.832Z,24.95
2019-05-22T01:44:03.290Z,24.94
2019-05-22T01:47:13.313Z,24.93
2019-05-22T01:50:24.429Z,24.94
2019-05-22T01:53:32.604Z,24.94
2019-05-22T01:56:36.311Z,24.95
2019-05-22T01:59:39.813Z,24.95
2019-05-22T02:02:43.784Z,24.95
2019-05-22T02:05:49.286Z,24.94
2019-05-22T02:09:02.141Z,24.94
2019-05-22T02:12:13.514Z,24.93
2019-05-22T02:15:18.789Z,24.95
2019-05-22T02:18:22.973Z,24.93
2019-05-22T02:21:27.463Z,24.89
2019-05-22T02:24:31.172Z,24.89
2019-05-22T02:27:35.943Z,24.91
2019-05-22T02:30:42.405Z,24.90
2019-05-22T02:34:02.556Z,24.89
2019-05-22T02:37:07.500Z,24.88
2019-05-22T02:40:20.157Z,24.87
2019-05-22T02:43:25.482Z,24.89
2019-05-22T02:46:29.615Z,24.87
2019-05-22T02:49:33.807Z,24.89
2019-05-22T02:52:37.970Z,24.88
2019-05-22T02:55:44.519Z,24.87
2019-05-22T02:58:49.431Z,24.86
2019-05-22T03:01:53.059Z,24.85
2019-05-22T03:04:59.975Z,24.84
2019-05-22T03:08:04.016Z,24.86
2019-05-22T03:11:08.336Z,24.84
2019-05-22T03:14:13.723Z,24.86
2019-05-22T03:17:27.682Z,24.85
2019-05-22T03:20:32.280Z,24.85
2019-05-22T03:23:36.972Z,24.87
2019-05-22T03:26:47.288Z,24.86
2019-05-22T03:29:53.300Z,24.84
2019-05-22T03:32:57.483Z,24.83
2019-05-22T03:36:07.546Z,24.85
2019-05-22T03:39:12.671Z,24.82
2019-05-22T03:42:17.101Z,24.83
2019-05-22T03:45:22.364Z,24.83
2019-05-22T03:48:26.444Z,24.84
2019-05-22T03:51:36.297Z,24.83
2019-05-22T03:54:42.388Z,24.81
2019-05-22T03:57:46.013Z,24.80
2019-05-22T04:00:50.416Z,24.81
2019-05-22T04:03:54.022Z,24.82
2019-05-22T04:06:57.895Z,24.79
2019-05-22T04:10:01.356Z,24.79
2019-05-22T04:13:06.342Z,24.78
2019-05-22T04:16:12.754Z,24.80
2019-05-22T04:19:16.246Z,24.80
2019-05-22T04:22:20.024Z,24.80
2019-05-22T04:25:23.453Z,24.78
2019-05-22T04:28:27.882Z,24.81
2019-05-22T04:31:57.990Z,24.78
2019-05-22T04:35:02.600Z,24.78
2019-05-22T04:38:06.037Z,24.79
2019-05-22T04:41:10.534Z,24.78
2019-05-22T04:44:14.069Z,24.78
2019-05-22T04:47:17.561Z,24.80
2019-05-22T04:50:22.064Z,24.79
2019-05-22T04:53:27.583Z,24.78
2019-05-22T04:56:31.222Z,24.77
2019-05-22T04:59:34.947Z,24.79
2019-05-22T05:02:38.942Z,24.77
2019-05-22T05:05:43.750Z,24.79
2019-05-22T05:08:47.393Z,24.77
2019-05-22T05:11:50.874Z,24.75
2019-05-22T05:14:54.389Z,24.75
2019-05-22T05:17:58.882Z,24.77
2019-05-22T05:21:02.302Z,24.76
2019-05-22T05:24:05.920Z,24.76
2019-05-22T05:27:09.450Z,24.76
2019-05-22T05:30:13.395Z,24.76
2019-05-22T05:33:18.104Z,24.75
2019-05-22T05:36:23.586Z,24.75
2019-05-22T05:40:09.836Z,24.76
2019-05-22T05:43:16.556Z,24.75
2019-05-22T05:46:20.024Z,24.73
2019-05-22T05:49:24.328Z,24.73
2019-05-22T05:52:28.115Z,24.74
2019-05-22T05:55:55.440Z,24.74
2019-05-22T05:59:00.260Z,24.72
2019-05-22T06:02:05.065Z,24.72
2019-05-22T06:05:09.492Z,24.73
2019-05-22T06:08:13.218Z,24.73
2019-05-22T06:11:41.162Z,24.73
2019-05-22T06:14:45.543Z,24.74
2019-05-22T06:18:29.088Z,24.74
2019-05-22T06:21:33.402Z,24.85
2019-05-22T06:25:01.653Z,24.94
2019-05-22T06:28:05.908Z,24.95
2019-05-22T06:31:15.498Z,24.95
2019-05-22T06:34:19.181Z,25.03
2019-05-22T06:37:34.696Z,25.07
2019-05-22T06:40:38.141Z,25.11
2019-05-22T06:44:38.860Z,25.13
2019-05-22T06:47:44.344Z,25.16
2019-05-22T06:50:49.510Z,25.15
2019-05-22T06:53:53.175Z,25.21
2019-05-22T06:56:57.702Z,25.24
2019-05-22T07:00:14.053Z,25.15
2019-05-22T07:03:10.655Z,25.13
2019-05-22T07:06:15.202Z,25.13
2019-05-22T07:09:19.283Z,25.14
2019-05-22T07:12:24.010Z,25.13
2019-05-22T07:15:30.886Z,25.12
2019-05-22T07:18:34.591Z,25.08
2019-05-22T07:21:38.256Z,25.08
2019-05-22T07:24:41.900Z,25.10
2019-05-22T07:27:45.416Z,25.10
2019-05-22T07:30:49.298Z,25.08
2019-05-22T07:33:52.954Z,25.06
2019-05-22T07:36:56.538Z,25.07
2019-05-22T07:40:00.090Z,25.08
2019-05-22T07:43:05.759Z,25.09
2019-05-22T07:46:10.492Z,25.10
2019-05-22T07:49:14.076Z,25.09
2019-05-22T07:52:17.517Z,25.09
2019-05-22T07:55:22.457Z,25.06
2019-05-22T07:58:28.835Z,25.06
2019-05-22T08:01:32.609Z,25.06
2019-05-22T08:04:36.561Z,25.07
2019-05-22T08:07:40.692Z,25.09
2019-05-22T08:10:44.768Z,25.07
2019-05-22T08:13:49.190Z,25.06
2019-05-22T08:16:58.438Z,25.03
2019-05-22T08:20:02.073Z,25.02
2019-05-22T08:23:05.894Z,25.01
2019-05-22T08:26:10.700Z,25.01
2019-05-22T08:29:14.640Z,25.02
2019-05-22T08:32:18.502Z,25.02
2019-05-22T08:35:22.230Z,25.05
2019-05-22T08:38:33.578Z,25.07
2019-05-22T08:41:38.859Z,25.07
2019-05-22T08:44:42.430Z,25.06
2019-05-22T08:47:46.033Z,25.04
2019-05-22T08:50:49.869Z,25.04
2019-05-22T08:53:53.773Z,25.04
2019-05-22T08:56:57.367Z,25.04
2019-05-22T09:00:12.389Z,25.05
2019-05-22T09:03:16.396Z,25.05
2019-05-22T09:06:20.561Z,25.06
2019-05-22T09:09:26.620Z,25.04
2019-05-22T09:12:36.937Z,25.05
2019-05-22T09:19:14.090Z,25.05
2019-05-22T09:22:18.708Z,25.05
2019-05-22T09:25:22.227Z,25.03
2019-05-22T09:28:25.716Z,25.04
2019-05-22T09:31:29.248Z,25.03
2019-05-22T09:34:32.716Z,25.03
2019-05-22T09:37:36.231Z,25.03
2019-05-22T09:40:39.738Z,25.06
2019-05-22T09:43:44.235Z,25.06
2019-05-22T09:46:49.235Z,25.07
2019-05-22T09:49:52.694Z,25.07
2019-05-22T09:52:58.280Z,25.06
2019-05-22T09:56:02.411Z,25.04
2019-05-22T09:59:05.862Z,25.02
2019-05-22T10:02:09.885Z,25.03
2019-05-22T10:05:13.878Z,25.05
2019-05-22T10:08:18.386Z,25.04
2019-05-22T10:11:23.331Z,25.06
2019-05-22T10:14:27.842Z,25.05
2019-05-22T10:17:33.019Z,25.04
2019-05-22T10:20:36.765Z,25.06
2019-05-22T10:23:40.978Z,25.03
2019-05-22T10:26:50.268Z,25.06
2019-05-22T10:29:54.403Z,25.06
2019-05-22T10:33:00.279Z,25.03
2019-05-22T10:36:04.233Z,25.05
2019-05-22T10:39:08.088Z,25.06
2019-05-22T10:42:11.987Z,25.06
2019-05-22T10:45:15.563Z,25.07
2019-05-22T10:48:19.085Z,25.07
2019-05-22T10:51:23.100Z,25.06
2019-05-22T10:54:27.491Z,25.06
2019-05-22T10:57:31.346Z,25.06
2019-05-22T11:00:35.033Z,25.04
2019-05-22T11:03:40.463Z,25.07
2019-05-22T11:06:44.371Z,25.09
2019-05-22T11:09:49.031Z,25.07
2019-05-22T11:12:52.688Z,25.08
2019-05-22T11:15:58.227Z,25.06
2019-05-22T11:19:01.901Z,25.03
2019-05-22T11:22:07.385Z,25.04
2019-05-22T11:25:12.966Z,25.03
2019-05-22T11:28:17.492Z,25.02
2019-05-22T11:31:21.007Z,25.01
2019-05-22T11:34:25.510Z,25.03
2019-05-22T11:37:30.499Z,25.05
2019-05-22T11:40:33.945Z,25.03
2019-05-22T11:43:37.875Z,25.05
2019-05-22T11:46:41.368Z,25.04
2019-05-22T11:49:44.888Z,25.07
2019-05-22T11:52:50.602Z,25.06
2019-05-22T11:55:54.121Z,25.06
2019-05-22T11:58:57.611Z,25.07
2019-05-22T12:02:01.100Z,25.07
2019-05-22T12:05:05.050Z,25.07
2019-05-22T12:08:08.763Z,25.08
2019-05-22T12:11:14.208Z,25.07
2019-05-22T12:14:18.551Z,25.09
2019-05-22T12:17:37.523Z,25.07
2019-05-22T12:20:29.286Z,25.07
2019-05-22T12:23:32.950Z,25.09
2019-05-22T12:26:37.440Z,25.06
2019-05-22T12:29:41.064Z,25.08
2019-05-22T12:32:44.644Z,25.07
2019-05-22T12:35:48.492Z,25.09
2019-05-22T12:38:51.988Z,25.10
2019-05-22T12:41:57.126Z,25.09
2019-05-22T12:45:00.759Z,25.09
2019-05-22T12:48:06.433Z,25.10
2019-05-22T12:51:10.580Z,25.10
2019-05-22T12:54:14.213Z,25.10
2019-05-22T12:57:17.659Z,25.10
2019-05-22T13:00:22.388Z,25.10
2019-05-22T13:03:25.797Z,25.10
2019-05-22T13:06:30.639Z,25.11
2019-05-22T13:09:35.333Z,25.11
2019-05-22T13:12:39.870Z,25.12
2019-05-22T13:15:43.862Z,25.11
2019-05-22T13:18:47.292Z,25.12
2019-05-22T13:21:52.357Z,25.11
2019-05-22T13:24:56.947Z,25.12
2019-05-22T13:28:02.507Z,25.11
2019-05-22T13:31:07.474Z,25.11
2019-05-22T13:34:11.988Z,25.13
2019-05-22T13:37:15.458Z,25.12
2019-05-22T13:40:27.481Z,25.11
2019-05-22T13:43:26.727Z,25.12
2019-05-22T13:46:30.349Z,25.13
2019-05-22T13:49:35.395Z,25.14
2019-05-22T13:52:39.610Z,25.15
2019-05-22T13:55:43.227Z,25.12
2019-05-22T13:58:46.829Z,25.13
2019-05-22T14:01:50.752Z,25.14
2019-05-22T14:04:54.731Z,25.15
2019-05-22T14:07:58.249Z,25.13
2019-05-22T14:11:02.856Z,25.12
2019-05-22T14:14:06.649Z,25.10
2019-05-22T14:17:10.213Z,25.09
2019-05-22T14:20:14.093Z,25.07
2019-05-22T14:23:18.004Z,25.07
2019-05-22T14:26:21.514Z,25.08
2019-05-22T14:29:25.068Z,25.08
2019-05-22T14:32:30.352Z,25.09
2019-05-22T14:35:47.553Z,25.09
2019-05-22T14:38:41.561Z,25.10
2019-05-22T14:41:46.221Z,25.10
2019-05-22T14:44:49.764Z,25.12
2019-05-22T14:47:55.360Z,25.10
2019-05-22T14:51:00.081Z,25.09
2019-05-22T14:54:05.143Z,25.10
2019-05-22T14:57:09.791Z,25.08
2019-05-22T15:00:13.849Z,25.08
2019-05-22T15:03:17.576Z,25.10
2019-05-22T15:06:21.269Z,25.07
2019-05-22T15:09:24.853Z,25.08
2019-05-22T15:12:28.992Z,25.07
2019-05-22T15:15:32.466Z,25.07
2019-05-22T15:18:36.110Z,25.06
2019-05-22T15:21:40.707Z,25.07
2019-05-22T15:24:44.209Z,25.08
2019-05-22T15:27:47.721Z,25.09
2019-05-22T15:30:52.353Z,25.09
2019-05-22T15:33:56.082Z,25.08
2019-05-22T15:37:00.386Z,25.09
2019-05-22T15:40:05.677Z,25.09
2019-05-22T15:43:09.118Z,25.09
2019-05-22T15:46:13.333Z,25.10
2019-05-22T15:49:17.521Z,25.11
2019-05-22T15:52:21.762Z,25.09
2019-05-22T15:55:26.008Z,25.10
2019-05-22T15:58:32.684Z,25.10
2019-05-22T16:01:36.885Z,25.11
2019-05-22T16:04:41.037Z,25.09
2019-05-22T16:07:48.991Z,25.09
2019-05-22T16:10:52.814Z,25.10
2019-05-22T16:13:56.889Z,25.10
2019-05-22T16:17:01.221Z,25.05
2019-05-22T16:20:09.495Z,25.05
2019-05-22T16:23:13.081Z,25.05
2019-05-22T16:26:17.673Z,25.05
2019-05-22T16:29:21.920Z,25.01
2019-05-22T16:32:27.919Z,25.02
2019-05-22T16:35:31.546Z,25.00
2019-05-22T16:38:36.503Z,24.99
2019-05-22T16:41:40.027Z,24.97
2019-05-22T16:44:44.796Z,24.95
2019-05-22T16:47:48.236Z,24.96
2019-05-22T16:50:51.732Z,24.98
2019-05-22T16:53:57.054Z,25.00
2019-05-22T16:57:01.059Z,25.00
2019-05-22T17:00:05.664Z,25.00
2019-05-22T17:03:10.982Z,25.03
2019-05-22T17:06:14.763Z,25.03
2019-05-22T17:09:21.849Z,25.03
2019-05-22T17:12:25.616Z,25.00
2019-05-22T17:15:29.438Z,25.00
2019-05-22T17:18:46.492Z,24.98
2019-05-22T17:21:43.945Z,24.99
2019-05-22T17:24:47.463Z,25.01
2019-05-22T17:27:50.961Z,24.96
2019-05-22T17:30:54.446Z,24.98
2019-05-22T17:33:58.631Z,24.98
2019-05-22T17:37:14.530Z,24.99
2019-05-22T17:40:20.381Z,24.95
2019-05-22T17:43:25.507Z,24.97
2019-05-22T17:46:29.085Z,24.97
2019-05-22T17:49:33.091Z,24.99
2019-05-22T17:52:37.684Z,24.97
2019-05-22T17:55:41.420Z,24.98
2019-05-22T17:58:45.043Z,24.98
2019-05-22T18:01:55.220Z,24.97
2019-05-22T18:05:01.351Z,24.98
2019-05-22T18:08:07.261Z,24.97
2019-05-22T18:11:10.783Z,24.97
2019-05-22T18:14:15.188Z,24.96
2019-05-22T18:17:19.378Z,24.97
2019-05-22T18:20:23.521Z,24.97
2019-05-22T18:23:27.468Z,24.98
2019-05-22T18:26:32.678Z,24.97
2019-05-22T18:29:36.355Z,24.97
2019-05-22T18:32:41.760Z,24.96
2019-05-22T18:35:45.593Z,24.96
2019-05-22T18:38:49.145Z,24.97
2019-05-22T18:41:53.687Z,24.98
2019-05-22T18:44:57.180Z,24.98
2019-05-22T18:48:00.688Z,24.98
2019-05-22T18:51:06.115Z,24.99
2019-05-22T18:54:09.566Z,24.99
2019-05-22T18:57:14.387Z,25.00
2019-05-22T19:00:21.571Z,25.03
2019-05-22T19:03:25.429Z,25.01
2019-05-22T19:06:30.574Z,25.03
2019-05-22T19:09:34.208Z,25.02
2019-05-22T19:12:38.907Z,25.01
2019-05-22T19:15:42.908Z,25.01
2019-05-22T19:18:46.815Z,25.01
2019-05-22T19:21:51.291Z,25.03
2019-05-22T19:24:55.805Z,25.08
2019-05-22T19:27:59.330Z,25.09
2019-05-22T19:31:03.848Z,25.09
2019-05-22T19:34:07.847Z,25.11
2019-05-22T19:37:12.281Z,25.10
2019-05-22T19:40:16.095Z,25.11
2019-05-22T19:43:19.678Z,25.10
2019-05-22T19:46:24.679Z,25.12
2019-05-22T19:49:29.345Z,25.12
2019-05-22T19:52:41.837Z,25.13
2019-05-22T19:55:40.839Z,25.14
2019-05-22T19:58:45.851Z,25.15
2019-05-22T20:01:49.898Z,25.15
2019-05-22T20:04:53.597Z,25.15
2019-05-22T20:07:57.006Z,25.16
2019-05-22T20:11:00.764Z,25.19
2019-05-22T20:14:04.981Z,25.14
2019-05-22T20:17:08.843Z,25.10
2019-05-22T20:20:12.808Z,25.08
2019-05-22T20:23:17.352Z,25.07
2019-05-22T20:26:21.185Z,25.05
2019-05-22T20:29:25.740Z,25.03
2019-05-22T20:32:29.626Z,25.02
2019-05-22T20:35:34.175Z,25.01
2019-05-22T20:38:40.124Z,24.99
2019-05-22T20:41:44.667Z,24.99
2019-05-22T20:44:49.429Z,24.99
2019-05-22T20:48:09.666Z,24.97
2019-05-22T20:51:16.699Z,24.96
2019-05-22T20:54:20.606Z,24.93
2019-05-22T20:57:25.705Z,24.93
2019-05-22T21:00:31.968Z,24.90
2019-05-22T21:03:36.858Z,24.91
2019-05-22T21:06:44.240Z,24.92
2019-05-22T21:09:48.159Z,24.91
2019-05-22T21:12:53.449Z,24.89
2019-05-22T21:15:56.891Z,24.88
2019-05-22T21:19:00.328Z,24.87
2019-05-22T21:22:05.398Z,24.88
2019-05-22T21:25:11.995Z,24.85
2019-05-22T21:28:21.451Z,24.86
2019-05-22T21:31:26.931Z,24.84
2019-05-22T21:34:30.433Z,24.83
2019-05-22T21:37:33.931Z,24.82
2019-05-22T21:40:38.505Z,24.82
2019-05-22T21:43:41.977Z,24.83
2019-05-22T21:46:45.470Z,24.81
2019-05-22T21:49:50.211Z,24.80
2019-05-22T21:52:53.785Z,24.80
2019-05-22T21:56:04.696Z,24.80
2019-05-22T21:59:04.158Z,24.80
2019-05-22T22:02:13.473Z,24.77
2019-05-22T22:05:19.257Z,24.77
2019-05-22T22:08:22.921Z,24.76
2019-05-22T22:11:27.399Z,24.76
2019-05-22T22:14:31.367Z,24.75
2019-05-22T22:17:35.998Z,24.75
2019-05-22T22:20:39.734Z,24.74
2019-05-22T22:23:44.752Z,24.74
2019-05-22T22:26:48.376Z,24.75
2019-05-22T22:29:52.933Z,24.74
2019-05-22T22:32:56.763Z,24.71
2019-05-22T22:36:00.586Z,24.71
2019-05-22T22:39:10.191Z,24.72
2019-05-22T22:42:17.952Z,24.72
2019-05-22T22:45:29.595Z,24.71
2019-05-22T22:48:35.478Z,24.71
2019-05-22T22:51:38.918Z,24.70
2019-05-22T22:54:44.027Z,24.70
2019-05-22T22:57:48.348Z,24.68
2019-05-22T23:00:53.450Z,24.69
2019-05-22T23:03:59.180Z,24.68
2019-05-22T23:07:05.702Z,24.67
2019-05-22T23:10:09.456Z,24.67
2019-05-22T23:13:14.327Z,24.67
2019-05-22T23:16:20.914Z,24.66
2019-05-22T23:19:33.649Z,24.65
2019-05-22T23:22:36.029Z,24.65
2019-05-22T23:25:42.219Z,24.66
2019-05-22T23:28:47.197Z,24.63
2019-05-22T23:31:51.022Z,24.64
2019-05-22T23:34:55.382Z,24.64
2019-05-22T23:37:59.141Z,24.64
2019-05-22T23:41:03.254Z,24.65
2019-05-22T23:44:07.607Z,24.63
2019-05-22T23:47:12.867Z,24.64
2019-05-22T23:50:17.245Z,24.63
2019-05-22T23:53:23.518Z,24.61
2019-05-22T23:56:27.656Z,24.60
2019-05-22T23:59:33.888Z,24.60
